Pembroke, North Carolina
Current Conditions -  °F | °C
As of 11:54 AM on Wednesday 26 Nov 2014 (Local Time) from KLBT Reporting Station
Overcast Overcast  
Wind Chill: 51°   Ceiling: 1700
Heat Index: 51°   Visibility: 10mi
Dew Point: 46°   Wind: 8mph
Humidity: 83%   Direction: 320°NW
Pressure: 29.9"   Gusts: NA
Location:  34.68°N, 79.2°W
Report Text: KLBT 261654Z AUTO 32007KT 10SM OVC017 11/08 A2990 RMK AO2 RAB02E15B29E41 SLP125 P0000 T01060078
Loading
Personal Weather Stations






























Interactive Weather Map New forecast layout! Learn more

10-Day Weather Forecast

Advertisements
Track Severe Weather on mobile